sensor_id;sensor_type;location;lat;lon;timestamp;P1;durP1;ratioP1;P2;durP2;ratioP2
3677;SDS011;1855;50.934;6.958;2023-03-23T00:00:48;3.40;;;1.90;;
3677;SDS011;1855;50.934;6.958;2023-03-23T00:03:16;3.97;;;2.30;;
3677;SDS011;1855;50.934;6.958;2023-03-23T00:05:43;2.55;;;1.60;;
3677;SDS011;1855;50.934;6.958;2023-03-23T00:08:15;1.60;;;1.50;;
3677;SDS011;1855;50.934;6.958;2023-03-23T00:10:42;2.97;;;1.70;;
3677;SDS011;1855;50.934;6.958;2023-03-23T00:13:09;4.00;;;1.98;;
3677;SDS011;1855;50.934;6.958;2023-03-23T00:15:36;2.30;;;1.90;;
3677;SDS011;1855;50.934;6.958;2023-03-23T00:18:06;3.55;;;1.95;;
3677;SDS011;1855;50.934;6.958;2023-03-23T00:20:34;2.28;;;1.70;;
3677;SDS011;1855;50.934;6.958;2023-03-23T00:23:05;2.40;;;1.70;;
3677;SDS011;1855;50.934;6.958;2023-03-23T00:25:32;3.28;;;1.70;;
3677;SDS011;1855;50.934;6.958;2023-03-23T00:27:59;2.00;;;1.50;;
3677;SDS011;1855;50.934;6.958;2023-03-23T00:30:27;2.15;;;1.75;;
3677;SDS011;1855;50.934;6.958;2023-03-23T00:32:54;2.85;;;1.60;;
3677;SDS011;1855;50.934;6.958;2023-03-23T00:35:22;1.40;;;1.30;;
3677;SDS011;1855;50.934;6.958;2023-03-23T00:37:51;1.73;;;1.52;;
3677;SDS011;1855;50.934;6.958;2023-03-23T00:40:18;2.03;;;1.42;;
3677;SDS011;1855;50.934;6.958;2023-03-23T00:42:44;2.67;;;1.40;;
3677;SDS011;1855;50.934;6.958;2023-03-23T00:45:13;1.77;;;1.50;;
3677;SDS011;1855;50.934;6.958;2023-03-23T00:47:41;2.20;;;1.40;;
3677;SDS011;1855;50.934;6.958;2023-03-23T00:50:11;1.65;;;1.40;;
3677;SDS011;1855;50.934;6.958;2023-03-23T00:52:39;2.15;;;1.30;;
3677;SDS011;1855;50.934;6.958;2023-03-23T00:55:07;2.28;;;1.50;;
3677;SDS011;1855;50.934;6.958;2023-03-23T00:57:34;1.73;;;1.50;;
3677;SDS011;1855;50.934;6.958;2023-03-23T01:00:01;1.70;;;1.15;;
3677;SDS011;1855;50.934;6.958;2023-03-23T01:02:33;1.60;;;1.40;;
3677;SDS011;1855;50.934;6.958;2023-03-23T01:05:00;2.40;;;1.42;;
3677;SDS011;1855;50.934;6.958;2023-03-23T01:07:28;1.70;;;1.58;;
3677;SDS011;1855;50.934;6.958;2023-03-23T01:09:56;2.13;;;1.60;;
3677;SDS011;1855;50.934;6.958;2023-03-23T01:12:26;2.70;;;1.40;;
3677;SDS011;1855;50.934;6.958;2023-03-23T01:14:53;2.40;;;1.60;;
3677;SDS011;1855;50.934;6.958;2023-03-23T01:17:20;2.17;;;1.60;;
3677;SDS011;1855;50.934;6.958;2023-03-23T01:19:47;1.50;;;1.40;;
3677;SDS011;1855;50.934;6.958;2023-03-23T01:22:14;2.60;;;1.63;;
3677;SDS011;1855;50.934;6.958;2023-03-23T01:24:41;1.50;;;1.40;;
3677;SDS011;1855;50.934;6.958;2023-03-23T01:27:07;2.30;;;1.50;;
3677;SDS011;1855;50.934;6.958;2023-03-23T01:29:35;1.60;;;1.40;;
3677;SDS011;1855;50.934;6.958;2023-03-23T01:32:02;1.67;;;1.57;;
3677;SDS011;1855;50.934;6.958;2023-03-23T01:34:29;1.60;;;1.40;;
3677;SDS011;1855;50.934;6.958;2023-03-23T01:36:56;1.60;;;1.50;;
3677;SDS011;1855;50.934;6.958;2023-03-23T01:39:23;1.50;;;1.40;;
3677;SDS011;1855;50.934;6.958;2023-03-23T01:41:49;2.00;;;1.70;;
3677;SDS011;1855;50.934;6.958;2023-03-23T01:47:22;2.40;;;1.73;;
3677;SDS011;1855;50.934;6.958;2023-03-23T01:49:51;3.90;;;1.90;;
3677;SDS011;1855;50.934;6.958;2023-03-23T01:52:19;2.30;;;2.10;;
3677;SDS011;1855;50.934;6.958;2023-03-23T01:54:50;2.92;;;1.80;;
3677;SDS011;1855;50.934;6.958;2023-03-23T01:57:21;2.90;;;2.00;;
3677;SDS011;1855;50.934;6.958;2023-03-23T01:59:52;2.50;;;2.20;;
3677;SDS011;1855;50.934;6.958;2023-03-23T02:02:22;2.10;;;1.90;;
3677;SDS011;1855;50.934;6.958;2023-03-23T02:04:51;2.30;;;2.10;;
3677;SDS011;1855;50.934;6.958;2023-03-23T02:07:25;2.30;;;2.10;;
3677;SDS011;1855;50.934;6.958;2023-03-23T02:09:52;2.65;;;2.40;;
3677;SDS011;1855;50.934;6.958;2023-03-23T02:12:19;3.88;;;2.20;;
3677;SDS011;1855;50.934;6.958;2023-03-23T02:14:46;2.40;;;2.20;;
3677;SDS011;1855;50.934;6.958;2023-03-23T02:17:14;3.00;;;2.20;;
3677;SDS011;1855;50.934;6.958;2023-03-23T02:19:55;2.20;;;2.00;;
3677;SDS011;1855;50.934;6.958;2023-03-23T02:23:04;3.00;;;2.10;;
3677;SDS011;1855;50.934;6.958;2023-03-23T02:25:55;2.60;;;2.40;;
3677;SDS011;1855;50.934;6.958;2023-03-23T02:28:42;2.50;;;2.30;;
3677;SDS011;1855;50.934;6.958;2023-03-23T02:31:47;2.67;;;2.40;;
3677;SDS011;1855;50.934;6.958;2023-03-23T02:34:33;2.50;;;2.30;;
3677;SDS011;1855;50.934;6.958;2023-03-23T02:37:07;4.00;;;2.50;;
3677;SDS011;1855;50.934;6.958;2023-03-23T02:39:39;3.50;;;3.03;;
3677;SDS011;1855;50.934;6.958;2023-03-23T02:42:11;3.03;;;2.42;;
3677;SDS011;1855;50.934;6.958;2023-03-23T02:44:42;4.50;;;2.60;;
3677;SDS011;1855;50.934;6.958;2023-03-23T02:47:12;2.53;;;2.30;;
3677;SDS011;1855;50.934;6.958;2023-03-23T02:49:45;2.28;;;2.08;;
3677;SDS011;1855;50.934;6.958;2023-03-23T02:52:15;2.33;;;2.10;;
3677;SDS011;1855;50.934;6.958;2023-03-23T02:54:46;2.45;;;1.77;;
3677;SDS011;1855;50.934;6.958;2023-03-23T02:57:15;2.47;;;2.17;;
3677;SDS011;1855;50.934;6.958;2023-03-23T02:59:42;2.20;;;2.00;;
3677;SDS011;1855;50.934;6.958;2023-03-23T03:02:09;2.08;;;1.52;;
3677;SDS011;1855;50.934;6.958;2023-03-23T03:04:41;2.33;;;1.90;;
3677;SDS011;1855;50.934;6.958;2023-03-23T03:10:23;2.00;;;1.80;;
3677;SDS011;1855;50.934;6.958;2023-03-23T03:12:54;2.40;;;1.60;;
3677;SDS011;1855;50.934;6.958;2023-03-23T03:15:26;1.60;;;1.50;;
3677;SDS011;1855;50.934;6.958;2023-03-23T03:18:00;1.95;;;1.50;;
3677;SDS011;1855;50.934;6.958;2023-03-23T03:20:32;1.70;;;1.60;;
3677;SDS011;1855;50.934;6.958;2023-03-23T03:23:04;2.35;;;1.80;;
3677;SDS011;1855;50.934;6.958;2023-03-23T03:25:34;2.07;;;1.60;;
3677;SDS011;1855;50.934;6.958;2023-03-23T03:28:02;1.55;;;1.40;;
3677;SDS011;1855;50.934;6.958;2023-03-23T03:30:30;2.33;;;1.50;;
3677;SDS011;1855;50.934;6.958;2023-03-23T03:33:00;1.70;;;1.60;;
3677;SDS011;1855;50.934;6.958;2023-03-23T03:35:28;2.28;;;1.40;;
3677;SDS011;1855;50.934;6.958;2023-03-23T03:37:58;1.75;;;1.40;;
3677;SDS011;1855;50.934;6.958;2023-03-23T03:40:32;1.60;;;1.50;;
3677;SDS011;1855;50.934;6.958;2023-03-23T03:42:59;2.30;;;1.90;;
3677;SDS011;1855;50.934;6.958;2023-03-23T03:45:26;1.55;;;1.40;;
3677;SDS011;1855;50.934;6.958;2023-03-23T03:47:52;1.70;;;1.40;;
3677;SDS011;1855;50.934;6.958;2023-03-23T03:50:19;1.63;;;1.40;;
3677;SDS011;1855;50.934;6.958;2023-03-23T03:52:46;1.30;;;1.10;;
3677;SDS011;1855;50.934;6.958;2023-03-23T03:55:14;1.40;;;1.30;;
3677;SDS011;1855;50.934;6.958;2023-03-23T03:57:42;1.60;;;1.35;;
3677;SDS011;1855;50.934;6.958;2023-03-23T04:00:09;1.30;;;1.20;;
3677;SDS011;1855;50.934;6.958;2023-03-23T04:02:39;1.67;;;1.50;;
3677;SDS011;1855;50.934;6.958;2023-03-23T04:05:07;1.50;;;1.40;;
3677;SDS011;1855;50.934;6.958;2023-03-23T04:07:35;1.80;;;1.50;;
3677;SDS011;1855;50.934;6.958;2023-03-23T04:10:04;1.83;;;1.38;;
3677;SDS011;1855;50.934;6.958;2023-03-23T04:12:33;1.60;;;1.50;;
3677;SDS011;1855;50.934;6.958;2023-03-23T04:15:00;1.40;;;1.30;;
3677;SDS011;1855;50.934;6.958;2023-03-23T04:17:27;1.70;;;1.60;;
3677;SDS011;1855;50.934;6.958;2023-03-23T04:19:54;1.88;;;1.67;;
3677;SDS011;1855;50.934;6.958;2023-03-23T04:22:22;1.70;;;1.30;;
3677;SDS011;1855;50.934;6.958;2023-03-23T04:24:55;2.05;;;1.20;;
3677;SDS011;1855;50.934;6.958;2023-03-23T04:27:25;1.70;;;1.50;;
3677;SDS011;1855;50.934;6.958;2023-03-23T04:29:54;1.50;;;1.37;;
3677;SDS011;1855;50.934;6.958;2023-03-23T04:32:23;1.50;;;1.40;;
3677;SDS011;1855;50.934;6.958;2023-03-23T04:34:54;2.65;;;1.80;;
3677;SDS011;1855;50.934;6.958;2023-03-23T04:37:21;2.10;;;1.67;;
3677;SDS011;1855;50.934;6.958;2023-03-23T04:39:50;1.70;;;1.60;;
3677;SDS011;1855;50.934;6.958;2023-03-23T04:42:25;1.77;;;1.67;;
3677;SDS011;1855;50.934;6.958;2023-03-23T04:44:54;2.63;;;1.70;;
3677;SDS011;1855;50.934;6.958;2023-03-23T04:47:20;2.50;;;1.70;;
3677;SDS011;1855;50.934;6.958;2023-03-23T04:49:47;1.77;;;1.60;;
3677;SDS011;1855;50.934;6.958;2023-03-23T04:52:14;2.30;;;1.70;;
3677;SDS011;1855;50.934;6.958;2023-03-23T04:54:41;2.72;;;2.17;;
3677;SDS011;1855;50.934;6.958;2023-03-23T04:57:08;2.05;;;1.60;;
3677;SDS011;1855;50.934;6.958;2023-03-23T04:59:34;1.83;;;1.50;;
3677;SDS011;1855;50.934;6.958;2023-03-23T05:02:03;2.00;;;1.80;;
3677;SDS011;1855;50.934;6.958;2023-03-23T05:04:29;1.85;;;1.75;;
3677;SDS011;1855;50.934;6.958;2023-03-23T05:06:58;2.08;;;1.80;;
3677;SDS011;1855;50.934;6.958;2023-03-23T05:09:25;2.22;;;1.63;;
3677;SDS011;1855;50.934;6.958;2023-03-23T05:11:52;1.98;;;1.70;;
3677;SDS011;1855;50.934;6.958;2023-03-23T05:14:19;1.60;;;1.50;;
3677;SDS011;1855;50.934;6.958;2023-03-23T05:16:46;2.05;;;1.85;;
3677;SDS011;1855;50.934;6.958;2023-03-23T05:19:15;3.90;;;1.70;;
3677;SDS011;1855;50.934;6.958;2023-03-23T05:21:41;1.50;;;1.40;;
3677;SDS011;1855;50.934;6.958;2023-03-23T05:24:09;2.10;;;1.70;;
3677;SDS011;1855;50.934;6.958;2023-03-23T05:26:36;2.60;;;1.90;;
3677;SDS011;1855;50.934;6.958;2023-03-23T05:29:02;2.22;;;1.90;;
3677;SDS011;1855;50.934;6.958;2023-03-23T05:31:29;2.22;;;2.03;;
3677;SDS011;1855;50.934;6.958;2023-03-23T05:33:57;2.80;;;2.00;;
3677;SDS011;1855;50.934;6.958;2023-03-23T05:36:25;2.47;;;1.90;;
3677;SDS011;1855;50.934;6.958;2023-03-23T05:38:52;2.20;;;2.00;;
3677;SDS011;1855;50.934;6.958;2023-03-23T05:41:19;2.40;;;2.20;;
3677;SDS011;1855;50.934;6.958;2023-03-23T05:43:46;2.40;;;2.20;;
3677;SDS011;1855;50.934;6.958;2023-03-23T05:46:13;2.30;;;2.10;;
3677;SDS011;1855;50.934;6.958;2023-03-23T05:48:39;3.40;;;2.30;;
3677;SDS011;1855;50.934;6.958;2023-03-23T05:51:06;2.10;;;1.90;;
3677;SDS011;1855;50.934;6.958;2023-03-23T05:53:34;2.97;;;2.28;;
3677;SDS011;1855;50.934;6.958;2023-03-23T05:56:01;3.10;;;2.33;;
3677;SDS011;1855;50.934;6.958;2023-03-23T05:58:29;2.50;;;2.30;;
3677;SDS011;1855;50.934;6.958;2023-03-23T06:00:56;2.47;;;2.28;;
3677;SDS011;1855;50.934;6.958;2023-03-23T06:03:23;2.80;;;2.50;;
3677;SDS011;1855;50.934;6.958;2023-03-23T06:05:50;2.90;;;2.28;;
3677;SDS011;1855;50.934;6.958;2023-03-23T06:08:17;2.38;;;2.15;;
3677;SDS011;1855;50.934;6.958;2023-03-23T06:10:45;2.50;;;2.30;;
3677;SDS011;1855;50.934;6.958;2023-03-23T06:13:13;2.72;;;2.10;;
3677;SDS011;1855;50.934;6.958;2023-03-23T06:15:39;2.95;;;2.38;;
3677;SDS011;1855;50.934;6.958;2023-03-23T06:18:06;2.63;;;2.20;;
3677;SDS011;1855;50.934;6.958;2023-03-23T06:20:33;2.92;;;2.50;;
3677;SDS011;1855;50.934;6.958;2023-03-23T06:23:01;2.70;;;2.30;;
3677;SDS011;1855;50.934;6.958;2023-03-23T06:25:28;2.22;;;2.03;;
3677;SDS011;1855;50.934;6.958;2023-03-23T06:27:57;3.17;;;2.38;;
3677;SDS011;1855;50.934;6.958;2023-03-23T06:30:24;2.50;;;2.17;;
3677;SDS011;1855;50.934;6.958;2023-03-23T06:32:51;2.70;;;2.20;;
3677;SDS011;1855;50.934;6.958;2023-03-23T06:35:18;2.35;;;2.10;;
3677;SDS011;1855;50.934;6.958;2023-03-23T06:37:45;2.30;;;1.90;;
3677;SDS011;1855;50.934;6.958;2023-03-23T06:40:12;2.30;;;2.10;;
3677;SDS011;1855;50.934;6.958;2023-03-23T06:42:39;2.60;;;1.83;;
3677;SDS011;1855;50.934;6.958;2023-03-23T06:45:08;3.28;;;2.10;;
3677;SDS011;1855;50.934;6.958;2023-03-23T06:47:35;2.97;;;2.00;;
3677;SDS011;1855;50.934;6.958;2023-03-23T06:50:02;2.57;;;2.00;;
3677;SDS011;1855;50.934;6.958;2023-03-23T06:52:29;1.95;;;1.67;;
3677;SDS011;1855;50.934;6.958;2023-03-23T06:54:56;2.95;;;1.70;;
3677;SDS011;1855;50.934;6.958;2023-03-23T06:57:23;2.65;;;1.60;;
3677;SDS011;1855;50.934;6.958;2023-03-23T06:59:50;2.90;;;1.70;;
3677;SDS011;1855;50.934;6.958;2023-03-23T07:02:18;1.90;;;1.70;;
3677;SDS011;1855;50.934;6.958;2023-03-23T07:04:45;2.38;;;1.70;;
3677;SDS011;1855;50.934;6.958;2023-03-23T07:07:11;2.60;;;1.73;;
3677;SDS011;1855;50.934;6.958;2023-03-23T07:09:39;3.22;;;1.65;;
3677;SDS011;1855;50.934;6.958;2023-03-23T07:12:07;1.95;;;1.40;;
3677;SDS011;1855;50.934;6.958;2023-03-23T07:14:35;3.10;;;1.50;;
3677;SDS011;1855;50.934;6.958;2023-03-23T07:17:02;3.58;;;1.77;;
3677;SDS011;1855;50.934;6.958;2023-03-23T07:19:32;2.00;;;1.30;;
3677;SDS011;1855;50.934;6.958;2023-03-23T07:21:58;2.20;;;1.55;;
3677;SDS011;1855;50.934;6.958;2023-03-23T07:24:26;3.42;;;1.40;;
3677;SDS011;1855;50.934;6.958;2023-03-23T07:26:52;3.63;;;1.60;;
3677;SDS011;1855;50.934;6.958;2023-03-23T07:29:19;2.70;;;1.40;;
3677;SDS011;1855;50.934;6.958;2023-03-23T07:31:46;2.80;;;1.50;;
3677;SDS011;1855;50.934;6.958;2023-03-23T07:34:13;3.00;;;1.40;;
3677;SDS011;1855;50.934;6.958;2023-03-23T07:36:41;2.03;;;1.40;;
3677;SDS011;1855;50.934;6.958;2023-03-23T07:39:08;3.45;;;1.30;;
3677;SDS011;1855;50.934;6.958;2023-03-23T07:41:35;1.55;;;1.35;;
3677;SDS011;1855;50.934;6.958;2023-03-23T07:44:02;1.90;;;1.48;;
3677;SDS011;1855;50.934;6.958;2023-03-23T07:46:29;2.60;;;1.60;;
3677;SDS011;1855;50.934;6.958;2023-03-23T07:48:56;2.45;;;1.33;;
3677;SDS011;1855;50.934;6.958;2023-03-23T07:51:23;2.80;;;1.40;;
3677;SDS011;1855;50.934;6.958;2023-03-23T07:53:51;3.00;;;1.50;;
3677;SDS011;1855;50.934;6.958;2023-03-23T07:56:18;2.33;;;1.40;;
3677;SDS011;1855;50.934;6.958;2023-03-23T07:58:45;3.40;;;1.80;;
3677;SDS011;1855;50.934;6.958;2023-03-23T08:01:12;2.90;;;1.30;;
3677;SDS011;1855;50.934;6.958;2023-03-23T08:03:40;1.90;;;1.50;;
3677;SDS011;1855;50.934;6.958;2023-03-23T08:06:07;3.25;;;1.48;;
3677;SDS011;1855;50.934;6.958;2023-03-23T08:08:34;2.60;;;1.23;;
3677;SDS011;1855;50.934;6.958;2023-03-23T08:11:03;2.30;;;1.35;;
3677;SDS011;1855;50.934;6.958;2023-03-23T08:13:30;3.30;;;1.60;;
3677;SDS011;1855;50.934;6.958;2023-03-23T08:15:58;2.60;;;1.23;;
3677;SDS011;1855;50.934;6.958;2023-03-23T08:18:28;3.10;;;1.50;;
3677;SDS011;1855;50.934;6.958;2023-03-23T08:20:55;2.20;;;1.40;;
3677;SDS011;1855;50.934;6.958;2023-03-23T08:23:22;3.13;;;1.35;;
3677;SDS011;1855;50.934;6.958;2023-03-23T08:25:49;2.60;;;1.40;;
3677;SDS011;1855;50.934;6.958;2023-03-23T08:28:20;2.42;;;1.38;;
3677;SDS011;1855;50.934;6.958;2023-03-23T08:30:47;3.38;;;1.38;;
3677;SDS011;1855;50.934;6.958;2023-03-23T08:33:14;2.30;;;1.40;;
3677;SDS011;1855;50.934;6.958;2023-03-23T08:35:41;1.80;;;1.35;;
3677;SDS011;1855;50.934;6.958;2023-03-23T08:38:09;3.53;;;1.20;;
3677;SDS011;1855;50.934;6.958;2023-03-23T08:40:36;2.70;;;1.30;;
3677;SDS011;1855;50.934;6.958;2023-03-23T08:43:04;2.17;;;1.80;;
3677;SDS011;1855;50.934;6.958;2023-03-23T08:45:32;3.80;;;1.58;;
3677;SDS011;1855;50.934;6.958;2023-03-23T08:48:00;2.90;;;1.45;;
3677;SDS011;1855;50.934;6.958;2023-03-23T08:50:27;2.97;;;1.40;;
3677;SDS011;1855;50.934;6.958;2023-03-23T08:52:55;2.35;;;1.50;;
3677;SDS011;1855;50.934;6.958;2023-03-23T08:55:23;3.63;;;1.50;;
3677;SDS011;1855;50.934;6.958;2023-03-23T08:57:51;5.28;;;1.58;;
3677;SDS011;1855;50.934;6.958;2023-03-23T09:00:19;1.80;;;1.20;;
3677;SDS011;1855;50.934;6.958;2023-03-23T09:02:51;2.92;;;1.40;;
3677;SDS011;1855;50.934;6.958;2023-03-23T09:05:19;2.80;;;1.20;;
3677;SDS011;1855;50.934;6.958;2023-03-23T09:07:50;3.10;;;1.70;;
3677;SDS011;1855;50.934;6.958;2023-03-23T09:10:18;5.20;;;1.92;;
3677;SDS011;1855;50.934;6.958;2023-03-23T09:12:45;2.83;;;1.60;;
3677;SDS011;1855;50.934;6.958;2023-03-23T09:15:13;3.25;;;1.83;;
3677;SDS011;1855;50.934;6.958;2023-03-23T09:17:41;2.47;;;1.58;;
3677;SDS011;1855;50.934;6.958;2023-03-23T09:20:11;2.60;;;1.60;;
3677;SDS011;1855;50.934;6.958;2023-03-23T09:22:42;3.75;;;1.50;;
3677;SDS011;1855;50.934;6.958;2023-03-23T09:25:11;2.58;;;1.45;;
3677;SDS011;1855;50.934;6.958;2023-03-23T09:27:40;4.45;;;1.55;;
3677;SDS011;1855;50.934;6.958;2023-03-23T09:30:09;5.00;;;1.60;;
3677;SDS011;1855;50.934;6.958;2023-03-23T09:32:38;2.63;;;1.30;;
3677;SDS011;1855;50.934;6.958;2023-03-23T09:35:07;2.90;;;1.40;;
3677;SDS011;1855;50.934;6.958;2023-03-23T09:37:38;3.47;;;1.35;;
3677;SDS011;1855;50.934;6.958;2023-03-23T09:40:06;3.10;;;1.52;;
3677;SDS011;1855;50.934;6.958;2023-03-23T09:42:42;5.43;;;1.60;;
3677;SDS011;1855;50.934;6.958;2023-03-23T09:45:19;4.10;;;1.40;;
3677;SDS011;1855;50.934;6.958;2023-03-23T09:47:57;4.50;;;1.65;;
3677;SDS011;1855;50.934;6.958;2023-03-23T09:50:32;4.03;;;1.60;;
3677;SDS011;1855;50.934;6.958;2023-03-23T09:53:05;4.10;;;1.80;;
3677;SDS011;1855;50.934;6.958;2023-03-23T09:55:37;4.40;;;1.58;;
3677;SDS011;1855;50.934;6.958;2023-03-23T09:58:09;4.80;;;1.60;;
3677;SDS011;1855;50.934;6.958;2023-03-23T10:00:39;3.80;;;1.60;;
3677;SDS011;1855;50.934;6.958;2023-03-23T10:03:10;3.15;;;1.25;;
3677;SDS011;1855;50.934;6.958;2023-03-23T10:05:41;3.53;;;1.55;;
3677;SDS011;1855;50.934;6.958;2023-03-23T10:08:12;3.63;;;1.20;;
3677;SDS011;1855;50.934;6.958;2023-03-23T10:10:45;2.85;;;1.30;;
3677;SDS011;1855;50.934;6.958;2023-03-23T10:13:22;2.70;;;1.30;;
3677;SDS011;1855;50.934;6.958;2023-03-23T10:15:58;3.08;;;1.23;;
3677;SDS011;1855;50.934;6.958;2023-03-23T10:18:27;2.35;;;1.42;;
3677;SDS011;1855;50.934;6.958;2023-03-23T10:21:02;2.17;;;0.90;;
3677;SDS011;1855;50.934;6.958;2023-03-23T10:23:40;3.00;;;1.45;;
3677;SDS011;1855;50.934;6.958;2023-03-23T10:26:16;2.40;;;1.10;;
3677;SDS011;1855;50.934;6.958;2023-03-23T10:28:54;3.08;;;1.20;;
3677;SDS011;1855;50.934;6.958;2023-03-23T10:31:30;2.83;;;1.10;;
3677;SDS011;1855;50.934;6.958;2023-03-23T10:34:02;3.30;;;1.40;;
3677;SDS011;1855;50.934;6.958;2023-03-23T10:36:36;1.90;;;0.90;;
3677;SDS011;1855;50.934;6.958;2023-03-23T10:39:09;1.90;;;1.17;;
3677;SDS011;1855;50.934;6.958;2023-03-23T10:41:39;1.77;;;0.90;;
3677;SDS011;1855;50.934;6.958;2023-03-23T10:44:09;2.07;;;1.00;;
3677;SDS011;1855;50.934;6.958;2023-03-23T10:46:43;1.40;;;0.90;;
3677;SDS011;1855;50.934;6.958;2023-03-23T10:49:13;2.00;;;0.88;;
3677;SDS011;1855;50.934;6.958;2023-03-23T10:51:47;1.80;;;1.00;;
3677;SDS011;1855;50.934;6.958;2023-03-23T10:54:27;1.60;;;0.80;;
3677;SDS011;1855;50.934;6.958;2023-03-23T10:56:58;1.40;;;0.70;;
3677;SDS011;1855;50.934;6.958;2023-03-23T10:59:26;2.10;;;0.80;;
3677;SDS011;1855;50.934;6.958;2023-03-23T11:01:55;1.00;;;0.80;;
3677;SDS011;1855;50.934;6.958;2023-03-23T11:04:24;1.20;;;0.80;;
3677;SDS011;1855;50.934;6.958;2023-03-23T11:06:52;2.55;;;0.80;;
3677;SDS011;1855;50.934;6.958;2023-03-23T11:09:34;1.20;;;0.73;;
3677;SDS011;1855;50.934;6.958;2023-03-23T11:12:02;1.70;;;1.00;;
3677;SDS011;1855;50.934;6.958;2023-03-23T11:14:30;1.60;;;0.90;;
3677;SDS011;1855;50.934;6.958;2023-03-23T11:16:59;2.00;;;0.95;;
3677;SDS011;1855;50.934;6.958;2023-03-23T11:19:29;1.45;;;0.80;;
3677;SDS011;1855;50.934;6.958;2023-03-23T11:22:06;1.50;;;0.70;;
3677;SDS011;1855;50.934;6.958;2023-03-23T11:24:36;1.13;;;0.70;;
3677;SDS011;1855;50.934;6.958;2023-03-23T11:27:07;1.20;;;0.70;;
3677;SDS011;1855;50.934;6.958;2023-03-23T11:29:36;2.58;;;0.90;;
3677;SDS011;1855;50.934;6.958;2023-03-23T11:32:15;1.80;;;0.80;;
3677;SDS011;1855;50.934;6.958;2023-03-23T11:34:43;2.92;;;1.20;;
3677;SDS011;1855;50.934;6.958;2023-03-23T11:37:13;3.15;;;1.00;;
3677;SDS011;1855;50.934;6.958;2023-03-23T11:39:52;2.08;;;0.90;;
3677;SDS011;1855;50.934;6.958;2023-03-23T11:42:21;2.00;;;0.90;;
3677;SDS011;1855;50.934;6.958;2023-03-23T11:44:53;1.70;;;1.00;;
3677;SDS011;1855;50.934;6.958;2023-03-23T11:47:22;1.80;;;0.80;;
3677;SDS011;1855;50.934;6.958;2023-03-23T11:50:00;2.83;;;1.10;;
3677;SDS011;1855;50.934;6.958;2023-03-23T11:52:32;2.13;;;1.10;;
3677;SDS011;1855;50.934;6.958;2023-03-23T11:55:10;1.40;;;0.80;;
3677;SDS011;1855;50.934;6.958;2023-03-23T11:57:41;0.93;;;0.60;;
3677;SDS011;1855;50.934;6.958;2023-03-23T12:00:13;1.23;;;0.60;;
3677;SDS011;1855;50.934;6.958;2023-03-23T12:05:34;1.60;;;0.60;;
3677;SDS011;1855;50.934;6.958;2023-03-23T12:08:15;1.20;;;0.60;;
3677;SDS011;1855;50.934;6.958;2023-03-23T12:10:54;1.80;;;0.70;;
3677;SDS011;1855;50.934;6.958;2023-03-23T12:13:31;1.50;;;0.70;;
3677;SDS011;1855;50.934;6.958;2023-03-23T12:16:17;2.00;;;0.90;;
3677;SDS011;1855;50.934;6.958;2023-03-23T12:18:55;2.03;;;0.70;;
3677;SDS011;1855;50.934;6.958;2023-03-23T12:21:31;1.50;;;0.70;;
3677;SDS011;1855;50.934;6.958;2023-03-23T12:24:08;1.80;;;0.70;;
3677;SDS011;1855;50.934;6.958;2023-03-23T12:26:44;1.90;;;0.90;;
3677;SDS011;1855;50.934;6.958;2023-03-23T12:29:33;1.10;;;1.00;;
3677;SDS011;1855;50.934;6.958;2023-03-23T12:35:09;1.98;;;0.88;;
3677;SDS011;1855;50.934;6.958;2023-03-23T12:37:46;2.17;;;0.90;;
3677;SDS011;1855;50.934;6.958;2023-03-23T12:40:23;3.20;;;0.90;;
3677;SDS011;1855;50.934;6.958;2023-03-23T12:43:05;2.00;;;1.10;;
3677;SDS011;1855;50.934;6.958;2023-03-23T12:45:46;2.50;;;1.20;;
3677;SDS011;1855;50.934;6.958;2023-03-23T12:48:31;2.50;;;1.17;;
3677;SDS011;1855;50.934;6.958;2023-03-23T12:51:03;2.30;;;1.20;;
3677;SDS011;1855;50.934;6.958;2023-03-23T12:53:38;3.30;;;1.40;;
3677;SDS011;1855;50.934;6.958;2023-03-23T12:56:12;2.10;;;1.30;;
3677;SDS011;1855;50.934;6.958;2023-03-23T12:58:46;2.80;;;1.20;;
3677;SDS011;1855;50.934;6.958;2023-03-23T13:01:14;2.65;;;1.30;;
3677;SDS011;1855;50.934;6.958;2023-03-23T13:03:47;1.90;;;1.10;;
3677;SDS011;1855;50.934;6.958;2023-03-23T13:06:19;2.72;;;1.40;;
3677;SDS011;1855;50.934;6.958;2023-03-23T13:08:55;2.22;;;1.10;;
3677;SDS011;1855;50.934;6.958;2023-03-23T13:11:27;2.83;;;1.13;;
3677;SDS011;1855;50.934;6.958;2023-03-23T13:14:01;2.72;;;1.25;;
3677;SDS011;1855;50.934;6.958;2023-03-23T13:16:39;2.00;;;1.20;;
3677;SDS011;1855;50.934;6.958;2023-03-23T13:19:13;2.05;;;1.10;;
3677;SDS011;1855;50.934;6.958;2023-03-23T13:21:44;2.13;;;1.20;;
3677;SDS011;1855;50.934;6.958;2023-03-23T13:24:16;2.93;;;1.30;;
3677;SDS011;1855;50.934;6.958;2023-03-23T13:26:46;1.60;;;1.00;;
3677;SDS011;1855;50.934;6.958;2023-03-23T13:29:18;2.60;;;1.20;;
3677;SDS011;1855;50.934;6.958;2023-03-23T13:31:49;3.67;;;1.30;;
3677;SDS011;1855;50.934;6.958;2023-03-23T13:34:18;2.80;;;1.40;;
3677;SDS011;1855;50.934;6.958;2023-03-23T13:36:52;2.55;;;1.20;;
3677;SDS011;1855;50.934;6.958;2023-03-23T13:39:21;2.33;;;1.23;;
3677;SDS011;1855;50.934;6.958;2023-03-23T13:41:59;2.08;;;1.23;;
3677;SDS011;1855;50.934;6.958;2023-03-23T13:44:40;2.40;;;1.10;;
3677;SDS011;1855;50.934;6.958;2023-03-23T13:47:16;2.00;;;1.20;;
3677;SDS011;1855;50.934;6.958;2023-03-23T13:49:55;2.65;;;1.20;;
3677;SDS011;1855;50.934;6.958;2023-03-23T13:52:24;1.80;;;1.00;;
3677;SDS011;1855;50.934;6.958;2023-03-23T13:55:16;3.10;;;1.20;;
3677;SDS011;1855;50.934;6.958;2023-03-23T13:57:49;2.50;;;1.47;;
3677;SDS011;1855;50.934;6.958;2023-03-23T14:00:33;1.92;;;1.00;;
3677;SDS011;1855;50.934;6.958;2023-03-23T14:03:13;2.40;;;1.40;;
3677;SDS011;1855;50.934;6.958;2023-03-23T14:05:42;2.20;;;1.60;;
3677;SDS011;1855;50.934;6.958;2023-03-23T14:08:11;2.90;;;1.40;;
3677;SDS011;1855;50.934;6.958;2023-03-23T14:10:50;3.50;;;1.70;;
3677;SDS011;1855;50.934;6.958;2023-03-23T14:13:23;1.80;;;1.40;;
3677;SDS011;1855;50.934;6.958;2023-03-23T14:15:57;2.13;;;1.40;;
3677;SDS011;1855;50.934;6.958;2023-03-23T14:18:27;1.85;;;1.25;;
3677;SDS011;1855;50.934;6.958;2023-03-23T14:20:58;4.10;;;1.70;;
3677;SDS011;1855;50.934;6.958;2023-03-23T14:23:25;3.70;;;1.70;;
3677;SDS011;1855;50.934;6.958;2023-03-23T14:25:56;2.85;;;1.45;;
3677;SDS011;1855;50.934;6.958;2023-03-23T14:28:30;3.10;;;1.60;;
3677;SDS011;1855;50.934;6.958;2023-03-23T14:30:59;3.30;;;1.50;;
3677;SDS011;1855;50.934;6.958;2023-03-23T14:33:26;3.40;;;1.40;;
3677;SDS011;1855;50.934;6.958;2023-03-23T14:35:53;2.10;;;1.50;;
3677;SDS011;1855;50.934;6.958;2023-03-23T14:38:23;3.45;;;1.60;;
3677;SDS011;1855;50.934;6.958;2023-03-23T14:40:59;2.55;;;1.45;;
3677;SDS011;1855;50.934;6.958;2023-03-23T14:43:27;4.53;;;1.70;;
3677;SDS011;1855;50.934;6.958;2023-03-23T14:45:55;2.78;;;1.20;;
3677;SDS011;1855;50.934;6.958;2023-03-23T14:48:26;2.25;;;1.33;;
3677;SDS011;1855;50.934;6.958;2023-03-23T14:50:56;3.70;;;1.80;;
3677;SDS011;1855;50.934;6.958;2023-03-23T14:53:25;4.25;;;1.80;;
3677;SDS011;1855;50.934;6.958;2023-03-23T14:55:58;3.20;;;1.67;;
3677;SDS011;1855;50.934;6.958;2023-03-23T14:58:27;3.05;;;1.50;;
3677;SDS011;1855;50.934;6.958;2023-03-23T15:00:56;2.67;;;1.60;;
3677;SDS011;1855;50.934;6.958;2023-03-23T15:03:27;4.05;;;1.60;;
3677;SDS011;1855;50.934;6.958;2023-03-23T15:05:57;2.60;;;1.23;;
3677;SDS011;1855;50.934;6.958;2023-03-23T15:08:28;2.92;;;1.20;;
3677;SDS011;1855;50.934;6.958;2023-03-23T15:10:59;3.00;;;1.20;;
3677;SDS011;1855;50.934;6.958;2023-03-23T15:13:33;2.95;;;1.30;;
3677;SDS011;1855;50.934;6.958;2023-03-23T15:16:02;1.93;;;1.10;;
3677;SDS011;1855;50.934;6.958;2023-03-23T15:18:32;3.22;;;1.30;;
3677;SDS011;1855;50.934;6.958;2023-03-23T15:21:08;3.00;;;1.00;;
3677;SDS011;1855;50.934;6.958;2023-03-23T15:23:40;2.65;;;1.10;;
3677;SDS011;1855;50.934;6.958;2023-03-23T15:26:16;2.00;;;1.20;;
3677;SDS011;1855;50.934;6.958;2023-03-23T15:28:50;2.22;;;1.17;;
3677;SDS011;1855;50.934;6.958;2023-03-23T15:31:40;2.28;;;1.00;;
3677;SDS011;1855;50.934;6.958;2023-03-23T15:34:12;2.30;;;0.97;;
3677;SDS011;1855;50.934;6.958;2023-03-23T15:36:52;2.00;;;1.10;;
3677;SDS011;1855;50.934;6.958;2023-03-23T15:39:21;2.45;;;1.02;;
3677;SDS011;1855;50.934;6.958;2023-03-23T15:41:49;2.80;;;1.20;;
3677;SDS011;1855;50.934;6.958;2023-03-23T15:44:21;2.67;;;1.20;;
3677;SDS011;1855;50.934;6.958;2023-03-23T15:46:51;2.40;;;1.20;;